createdAt,value
2019-01-25T00:00:58.148Z,100606.18
2019-01-25T00:01:59.016Z,100604.17
2019-01-25T00:02:59.899Z,100607.52
2019-01-25T00:04:00.901Z,100602.82
2019-01-25T00:05:01.838Z,100611.19
2019-01-25T00:06:03.496Z,100605.31
2019-01-25T00:07:04.356Z,100594.75
2019-01-25T00:08:05.210Z,100608.16
2019-01-25T00:09:06.118Z,100600.84
2019-01-25T00:10:08.169Z,100599.20
2019-01-25T00:11:09.036Z,100599.00
2019-01-25T00:12:09.909Z,100601.63
2019-01-25T00:13:10.779Z,100595.84
2019-01-25T00:14:11.698Z,100592.09
2019-01-25T00:15:12.563Z,100597.63
2019-01-25T00:16:13.889Z,100591.41
2019-01-25T00:17:14.819Z,100593.39
2019-01-25T00:18:15.713Z,100599.11
2019-01-25T00:19:16.632Z,100597.48
2019-01-25T00:20:17.487Z,100595.72
2019-01-25T00:21:18.355Z,100602.66
2019-01-25T00:22:19.213Z,100599.68
2019-01-25T00:23:20.080Z,100605.73
2019-01-25T00:24:20.980Z,100606.69
2019-01-25T00:25:21.841Z,100605.98
2019-01-25T00:26:22.697Z,100610.08
2019-01-25T00:27:30.091Z,100607.27
2019-01-25T00:28:31.150Z,100603.25
2019-01-25T00:29:32.137Z,100603.58
2019-01-25T00:30:32.967Z,100606.36
2019-01-25T00:31:33.825Z,100604.69
2019-01-25T00:32:34.675Z,100606.94
2019-01-25T00:33:35.541Z,100599.78
2019-01-25T00:34:36.427Z,100600.08
2019-01-25T00:35:37.295Z,100602.23
2019-01-25T00:36:38.149Z,100608.19
2019-01-25T00:37:41.212Z,100600.81
2019-01-25T00:38:42.065Z,100609.95
2019-01-25T00:39:42.956Z,100605.73
2019-01-25T00:40:43.832Z,100602.59
2019-01-25T00:41:44.692Z,100601.64
2019-01-25T00:42:45.550Z,100606.91
2019-01-25T00:43:46.407Z,100604.31
2019-01-25T00:44:47.309Z,100608.02
2019-01-25T00:45:48.181Z,100603.76
2019-01-25T00:46:49.054Z,100607.53
2019-01-25T00:47:49.910Z,100603.86
2019-01-25T00:48:50.760Z,100602.72
2019-01-25T00:49:51.694Z,100609.24
2019-01-25T00:50:52.546Z,100604.11
2019-01-25T00:51:53.401Z,100603.02
2019-01-25T00:52:54.261Z,100609.53
2019-01-25T00:53:55.122Z,100601.05
2019-01-25T00:54:56.003Z,100606.83
2019-01-25T00:55:56.874Z,100605.30
2019-01-25T00:56:57.726Z,100604.53
2019-01-25T00:57:58.590Z,100609.92
2019-01-25T00:58:59.447Z,100610.31
2019-01-25T01:00:00.342Z,100612.85
2019-01-25T01:01:01.408Z,100610.30
2019-01-25T01:02:02.258Z,100612.47
2019-01-25T01:03:04.018Z,100615.69
2019-01-25T01:04:04.873Z,100607.11
2019-01-25T01:05:05.768Z,100605.42
2019-01-25T01:06:06.636Z,100604.81
2019-01-25T01:07:07.496Z,100602.31
2019-01-25T01:08:08.474Z,100606.41
2019-01-25T01:09:09.339Z,100604.67
2019-01-25T01:10:14.250Z,100613.56
2019-01-25T01:11:13.113Z,100607.40
2019-01-25T01:12:13.974Z,100606.39
2019-01-25T01:13:14.830Z,100609.26
2019-01-25T01:14:15.682Z,100606.29
2019-01-25T01:15:17.381Z,100601.84
2019-01-25T01:16:18.332Z,100601.95
2019-01-25T01:17:19.184Z,100602.99
2019-01-25T01:18:20.136Z,100603.23
2019-01-25T01:19:20.994Z,100601.44
2019-01-25T01:20:21.887Z,100596.37
2019-01-25T01:21:22.742Z,100591.55
2019-01-25T01:22:23.595Z,100593.69
2019-01-25T01:23:24.462Z,100594.47
2019-01-25T01:24:25.354Z,100591.80
2019-01-25T01:25:26.220Z,100589.84
2019-01-25T01:26:27.068Z,100588.61
2019-01-25T01:27:27.927Z,100585.34
2019-01-25T01:28:28.790Z,100588.51
2019-01-25T01:29:29.688Z,100580.15
2019-01-25T01:30:30.655Z,100584.28
2019-01-25T01:31:31.546Z,100583.77
2019-01-25T01:32:32.408Z,100580.45
2019-01-25T01:33:33.266Z,100572.89
2019-01-25T01:34:34.133Z,100571.23
2019-01-25T01:35:35.011Z,100572.19
2019-01-25T01:36:35.873Z,100567.60
2019-01-25T01:37:36.720Z,100572.54
2019-01-25T01:38:37.607Z,100577.09
2019-01-25T01:39:38.468Z,100574.61
2019-01-25T01:40:39.329Z,100576.95
2019-01-25T01:41:40.195Z,100577.19
2019-01-25T01:42:41.136Z,100576.91
2019-01-25T01:43:42.072Z,100576.84
2019-01-25T01:44:42.948Z,100570.86
2019-01-25T01:45:43.795Z,100571.11
2019-01-25T01:46:44.650Z,100569.92
2019-01-25T01:47:48.278Z,100570.78
2019-01-25T01:48:49.326Z,100565.47
2019-01-25T01:49:53.086Z,100568.68
2019-01-25T01:50:53.934Z,100557.23
2019-01-25T01:51:54.795Z,100559.05
2019-01-25T01:52:55.664Z,100563.49
2019-01-25T01:53:56.546Z,100554.84
2019-01-25T01:54:57.402Z,100554.07
2019-01-25T01:55:58.256Z,100558.07
2019-01-25T01:56:59.112Z,100554.70
2019-01-25T01:58:01.870Z,100556.64
2019-01-25T01:59:02.778Z,100553.76
2019-01-25T02:00:18.620Z,100553.38
2019-01-25T02:01:24.260Z,100546.23
2019-01-25T02:02:25.106Z,100549.14
2019-01-25T02:03:25.960Z,100551.08
2019-01-25T02:04:26.850Z,100554.61
2019-01-25T02:05:27.711Z,100557.65
2019-01-25T02:06:28.574Z,100558.08
2019-01-25T02:07:29.434Z,100556.42
2019-01-25T02:08:30.386Z,100561.16
2019-01-25T02:09:31.381Z,100559.71
2019-01-25T02:10:32.340Z,100561.19
2019-01-25T02:11:33.226Z,100557.36
2019-01-25T02:12:36.578Z,100559.57
2019-01-25T02:13:39.434Z,100556.78
2019-01-25T02:14:40.294Z,100549.37
2019-01-25T02:15:41.156Z,100551.58
2019-01-25T02:16:42.006Z,100547.72
2019-01-25T02:17:42.854Z,100548.44
2019-01-25T02:18:43.773Z,100545.30
2019-01-25T02:19:44.626Z,100544.17
2019-01-25T02:20:45.480Z,100535.17
2019-01-25T02:21:46.338Z,100528.75
2019-01-25T02:22:47.210Z,100533.25
2019-01-25T02:23:48.130Z,100525.98
2019-01-25T02:24:49.010Z,100530.91
2019-01-25T02:25:49.863Z,100530.53
2019-01-25T02:26:50.710Z,100541.26
2019-01-25T02:27:51.565Z,100540.20
2019-01-25T02:28:52.461Z,100546.02
2019-01-25T02:29:53.308Z,100544.72
2019-01-25T02:30:54.163Z,100551.26
2019-01-25T02:31:57.208Z,100548.59
2019-01-25T02:32:58.065Z,100549.36
2019-01-25T02:34:00.597Z,100538.41
2019-01-25T02:35:02.007Z,100533.51
2019-01-25T02:36:03.072Z,100537.94
2019-01-25T02:37:03.928Z,100538.48
2019-01-25T02:38:04.890Z,100542.79
2019-01-25T02:39:06.432Z,100538.46
2019-01-25T02:40:10.501Z,100536.16
2019-01-25T02:41:11.359Z,100541.17
2019-01-25T02:42:12.224Z,100535.34
2019-01-25T02:43:13.159Z,100535.15
2019-01-25T02:44:14.138Z,100531.13
2019-01-25T02:45:15.074Z,100531.04
2019-01-25T02:46:15.930Z,100531.75
2019-01-25T02:47:16.786Z,100525.37
2019-01-25T02:48:17.751Z,100522.31
2019-01-25T02:49:18.650Z,100519.67
2019-01-25T02:50:19.506Z,100523.64
2019-01-25T02:51:20.359Z,100520.38
2019-01-25T02:52:24.278Z,100522.31
2019-01-25T02:53:25.150Z,100518.41
2019-01-25T02:54:26.029Z,100519.30
2019-01-25T02:55:26.872Z,100518.94
2019-01-25T02:56:27.736Z,100516.03
2019-01-25T02:57:28.640Z,100519.89
2019-01-25T02:58:29.492Z,100516.14
2019-01-25T02:59:30.360Z,100516.15
2019-01-25T03:00:31.321Z,100519.75
2019-01-25T03:01:32.176Z,100518.02
2019-01-25T03:02:33.058Z,100510.75
2019-01-25T03:03:33.927Z,100518.50
2019-01-25T03:04:34.891Z,100513.08
2019-01-25T03:05:35.738Z,100514.06
2019-01-25T03:06:36.628Z,100519.63
2019-01-25T03:07:39.425Z,100521.50
2019-01-25T03:08:40.284Z,100517.30
2019-01-25T03:09:41.142Z,100517.11
2019-01-25T03:10:47.090Z,100527.18
2019-01-25T03:11:44.814Z,100516.83
2019-01-25T03:12:45.702Z,100520.98
2019-01-25T03:13:46.568Z,100523.42
2019-01-25T03:14:47.528Z,100521.02
2019-01-25T03:15:48.380Z,100514.77
2019-01-25T03:16:49.318Z,100516.84
2019-01-25T03:17:50.174Z,100515.69
2019-01-25T03:18:51.028Z,100515.54
2019-01-25T03:19:51.882Z,100509.33
2019-01-25T03:20:52.780Z,100514.30
2019-01-25T03:21:53.634Z,100511.44
2019-01-25T03:22:54.493Z,100509.78
2019-01-25T03:23:55.351Z,100511.81
2019-01-25T03:24:56.256Z,100511.33
2019-01-25T03:25:57.122Z,100508.47
2019-01-25T03:26:57.979Z,100504.64
2019-01-25T03:27:58.847Z,100506.71
2019-01-25T03:28:59.728Z,100504.47
2019-01-25T03:30:00.692Z,100510.30
2019-01-25T03:31:01.657Z,100507.67
2019-01-25T03:32:02.661Z,100499.73
2019-01-25T03:33:03.601Z,100507.11
2019-01-25T03:34:04.466Z,100498.72
2019-01-25T03:35:07.932Z,100500.38
2019-01-25T03:36:08.786Z,100500.70
2019-01-25T03:37:09.678Z,100501.56
2019-01-25T03:38:10.540Z,100497.68
2019-01-25T03:39:11.378Z,100493.92
2019-01-25T03:40:18.173Z,100497.70
2019-01-25T03:41:19.032Z,100498.66
2019-01-25T03:42:19.918Z,100499.30
2019-01-25T03:43:20.830Z,100498.63
2019-01-25T03:44:21.746Z,100498.59
2019-01-25T03:45:22.737Z,100501.88
2019-01-25T03:46:23.582Z,100501.88
2019-01-25T03:47:24.487Z,100505.39
2019-01-25T03:48:25.326Z,100502.55
2019-01-25T03:49:26.178Z,100501.78
2019-01-25T03:50:28.231Z,100503.11
2019-01-25T03:51:29.088Z,100502.98
2019-01-25T03:52:29.986Z,100498.47
2019-01-25T03:53:30.936Z,100493.64
2019-01-25T03:54:31.901Z,100496.77
2019-01-25T03:55:32.757Z,100495.98
2019-01-25T03:56:33.607Z,100492.95
2019-01-25T03:57:34.496Z,100493.51
2019-01-25T03:58:35.358Z,100500.66
2019-01-25T03:59:36.222Z,100497.91
2019-01-25T04:00:37.084Z,100498.89
2019-01-25T04:01:37.948Z,100497.73
2019-01-25T04:02:38.834Z,100490.06
2019-01-25T04:03:39.690Z,100489.55
2019-01-25T04:04:40.561Z,100488.11
2019-01-25T04:05:41.418Z,100487.09
2019-01-25T04:06:42.278Z,100483.72
2019-01-25T04:07:43.164Z,100485.12
2019-01-25T04:08:44.091Z,100483.64
2019-01-25T04:09:44.966Z,100484.53
2019-01-25T04:10:45.806Z,100481.84
2019-01-25T04:11:46.670Z,100486.23
2019-01-25T04:12:47.564Z,100483.98
2019-01-25T04:13:48.515Z,100484.23
2019-01-25T04:14:49.385Z,100484.21
2019-01-25T04:15:54.419Z,100489.88
2019-01-25T04:16:55.373Z,100492.47
2019-01-25T04:17:56.796Z,100487.47
2019-01-25T04:18:57.648Z,100488.48
2019-01-25T04:19:58.499Z,100490.65
2019-01-25T04:21:04.374Z,100502.70
2019-01-25T04:22:05.258Z,100497.53
2019-01-25T04:23:06.171Z,100496.34
2019-01-25T04:24:07.283Z,100494.16
2019-01-25T04:25:11.804Z,100491.82
2019-01-25T04:26:12.659Z,100492.66
2019-01-25T04:27:13.510Z,100488.92
2019-01-25T04:28:14.406Z,100494.77
2019-01-25T04:29:15.281Z,100491.88
2019-01-25T04:30:24.727Z,100496.23
2019-01-25T04:31:25.587Z,100493.85
2019-01-25T04:32:26.451Z,100490.84
2019-01-25T04:33:27.375Z,100493.12
2019-01-25T04:34:28.255Z,100492.99
2019-01-25T04:35:29.108Z,100488.91
2019-01-25T04:36:29.970Z,100490.98
2019-01-25T04:37:30.952Z,100490.66
2019-01-25T04:38:31.836Z,100488.61
2019-01-25T04:39:32.697Z,100491.80
2019-01-25T04:40:33.550Z,100483.56
2019-01-25T04:41:34.420Z,100487.08
2019-01-25T04:42:35.284Z,100485.66
2019-01-25T04:43:36.164Z,100485.28
2019-01-25T04:44:37.024Z,100480.30
2019-01-25T04:45:37.874Z,100474.20
2019-01-25T04:46:38.733Z,100483.11
2019-01-25T04:47:39.611Z,100479.52
2019-01-25T04:48:40.510Z,100475.72
2019-01-25T04:49:41.377Z,100475.14
2019-01-25T04:50:42.231Z,100469.64
2019-01-25T04:51:43.085Z,100471.76
2019-01-25T04:52:43.938Z,100469.72
2019-01-25T04:53:44.824Z,100474.92
2019-01-25T04:54:48.876Z,100478.72
2019-01-25T04:55:49.718Z,100474.08
2019-01-25T04:56:50.575Z,100473.01
2019-01-25T04:57:51.415Z,100471.06
2019-01-25T04:58:53.310Z,100479.34
2019-01-25T04:59:54.166Z,100471.30
2019-01-25T05:00:55.028Z,100479.91
2019-01-25T05:01:55.882Z,100477.07
2019-01-25T05:02:58.629Z,100472.90
2019-01-25T05:03:59.525Z,100479.25
2019-01-25T05:05:00.497Z,100474.08
2019-01-25T05:06:01.560Z,100476.94
2019-01-25T05:07:02.520Z,100481.52
2019-01-25T05:08:10.070Z,100484.41
2019-01-25T05:09:10.982Z,100476.75
2019-01-25T05:10:12.115Z,100488.37
2019-01-25T05:11:19.763Z,100485.25
2019-01-25T05:12:16.839Z,100483.70
2019-01-25T05:13:17.696Z,100482.39
2019-01-25T05:14:18.590Z,100481.09
2019-01-25T05:15:19.443Z,100479.34
2019-01-25T05:16:20.298Z,100479.08
2019-01-25T05:17:21.144Z,100479.91
2019-01-25T05:18:22.034Z,100486.58
2019-01-25T05:19:22.898Z,100478.27
2019-01-25T05:20:23.762Z,100479.29
2019-01-25T05:21:24.630Z,100479.45
2019-01-25T05:22:25.691Z,100482.70
2019-01-25T05:23:26.587Z,100484.64
2019-01-25T05:24:30.443Z,100483.55
2019-01-25T05:25:31.619Z,100483.81
2019-01-25T05:26:32.510Z,100483.54
2019-01-25T05:27:33.369Z,100484.02
2019-01-25T05:28:34.322Z,100473.39
2019-01-25T05:29:49.786Z,100479.23
2019-01-25T05:30:53.338Z,100485.25
2019-01-25T05:31:54.207Z,100481.73
2019-01-25T05:32:55.108Z,100482.05
2019-01-25T05:33:55.969Z,100483.91
2019-01-25T05:34:56.820Z,100479.11
2019-01-25T05:36:00.724Z,100474.45
2019-01-25T05:37:01.822Z,100480.42
2019-01-25T05:38:04.059Z,100476.77
2019-01-25T05:39:05.680Z,100479.29
2019-01-25T05:40:08.453Z,100482.06
2019-01-25T05:41:09.306Z,100484.61
2019-01-25T05:42:10.170Z,100484.62
2019-01-25T05:43:14.264Z,100485.38
2019-01-25T05:44:17.394Z,100488.23
2019-01-25T05:45:18.337Z,100481.06
2019-01-25T05:46:19.192Z,100481.13
2019-01-25T05:47:20.048Z,100482.06
2019-01-25T05:48:26.047Z,100485.54
2019-01-25T05:49:26.903Z,100482.62
2019-01-25T05:50:27.786Z,100477.34
2019-01-25T05:51:33.692Z,100478.72
2019-01-25T05:52:39.476Z,100479.92
2019-01-25T05:53:46.123Z,100478.23
2019-01-25T05:54:47.004Z,100479.69
2019-01-25T05:55:47.867Z,100475.38
2019-01-25T05:56:51.858Z,100480.98
2019-01-25T05:58:05.551Z,100482.72
2019-01-25T05:59:06.411Z,100478.91
2019-01-25T06:00:10.924Z,100480.03
2019-01-25T06:01:11.786Z,100475.20
2019-01-25T06:02:13.034Z,100472.02
2019-01-25T06:03:14.384Z,100472.71
2019-01-25T06:04:15.241Z,100475.84
2019-01-25T06:05:16.102Z,100479.23
2019-01-25T06:06:16.971Z,100482.70
2019-01-25T06:07:19.228Z,100481.84
2019-01-25T06:08:29.915Z,100482.56
2019-01-25T06:09:30.839Z,100475.06
2019-01-25T06:10:34.886Z,100481.86
2019-01-25T06:11:37.249Z,100484.21
2019-01-25T06:12:38.111Z,100482.58
2019-01-25T06:13:39.061Z,100479.02
2019-01-25T06:14:39.924Z,100477.96
2019-01-25T06:15:40.892Z,100475.92
2019-01-25T06:16:43.726Z,100473.16
2019-01-25T06:17:44.601Z,100473.31
2019-01-25T06:18:45.505Z,100475.94
2019-01-25T06:19:48.960Z,100470.25
2019-01-25T06:20:51.134Z,100474.86
2019-01-25T06:21:54.593Z,100476.77
2019-01-25T06:23:01.627Z,100476.52
2019-01-25T06:24:04.699Z,100480.95
2019-01-25T06:25:09.528Z,100479.64
2019-01-25T06:26:12.315Z,100481.61
2019-01-25T06:27:13.171Z,100479.09
2019-01-25T06:28:14.057Z,100488.37
2019-01-25T06:29:14.930Z,100487.32
2019-01-25T06:30:16.866Z,100486.31
2019-01-25T06:31:17.987Z,100489.36
2019-01-25T06:32:18.849Z,100485.74
2019-01-25T06:33:19.739Z,100488.39
2019-01-25T06:34:20.602Z,100485.76
2019-01-25T06:35:21.460Z,100485.38
2019-01-25T06:36:22.329Z,100484.57
2019-01-25T06:37:25.955Z,100478.78
2019-01-25T06:38:26.842Z,100475.09
2019-01-25T06:39:27.723Z,100473.85
2019-01-25T06:40:28.573Z,100474.55
2019-01-25T06:41:31.455Z,100468.45
2019-01-25T06:42:32.463Z,100465.08
2019-01-25T06:43:35.307Z,100459.11
2019-01-25T06:44:36.163Z,100460.42
2019-01-25T06:45:37.139Z,100464.77
2019-01-25T06:46:38.002Z,100466.22
2019-01-25T06:47:39.126Z,100467.36
2019-01-25T06:48:40.011Z,100473.81
2019-01-25T06:49:40.877Z,100470.13
2019-01-25T06:50:41.733Z,100472.52
2019-01-25T06:51:42.589Z,100467.98
2019-01-25T06:52:45.451Z,100473.41
2019-01-25T06:53:46.333Z,100478.56
2019-01-25T06:54:47.198Z,100470.63
2019-01-25T06:55:48.049Z,100466.23
2019-01-25T06:56:48.911Z,100468.22
2019-01-25T06:57:51.689Z,100478.04
2019-01-25T06:58:54.495Z,100478.57
2019-01-25T06:59:55.349Z,100474.22
2019-01-25T07:00:58.117Z,100476.41
2019-01-25T07:02:04.616Z,100472.98
2019-01-25T07:03:05.415Z,100475.31
2019-01-25T07:04:06.300Z,100479.38
2019-01-25T07:05:07.767Z,100476.29
2019-01-25T07:06:12.438Z,100474.61
2019-01-25T07:07:15.195Z,100477.06
2019-01-25T07:08:17.959Z,100472.64
2019-01-25T07:09:18.859Z,100473.03
2019-01-25T07:10:19.763Z,100465.56
2019-01-25T07:11:23.175Z,100472.08
2019-01-25T07:12:24.028Z,100474.70
2019-01-25T07:13:24.885Z,100468.25
2019-01-25T07:14:25.820Z,100463.89
2019-01-25T07:15:26.679Z,100464.77
2019-01-25T07:16:27.547Z,100458.59
2019-01-25T07:17:33.255Z,100460.41
2019-01-25T07:18:34.115Z,100459.03
2019-01-25T07:19:35.001Z,100461.25
2019-01-25T07:20:35.872Z,100460.77
2019-01-25T07:21:36.723Z,100460.09
2019-01-25T07:22:37.579Z,100459.77
2019-01-25T07:23:38.435Z,100459.74
2019-01-25T07:24:39.334Z,100461.38
2019-01-25T07:25:40.199Z,100460.95
2019-01-25T07:26:41.072Z,100462.11
2019-01-25T07:27:41.923Z,100471.13
2019-01-25T07:28:42.786Z,100462.80
2019-01-25T07:29:43.696Z,100463.63
2019-01-25T07:30:44.561Z,100462.94
2019-01-25T07:31:50.138Z,100463.80
2019-01-25T07:32:50.996Z,100464.11
2019-01-25T07:33:51.860Z,100459.24
2019-01-25T07:34:52.752Z,100458.23
2019-01-25T07:35:53.707Z,100464.52
2019-01-25T07:36:54.568Z,100465.52
2019-01-25T07:37:55.427Z,100467.45
2019-01-25T07:38:56.318Z,100462.08
2019-01-25T07:39:59.196Z,100463.77
2019-01-25T07:41:00.148Z,100463.91
2019-01-25T07:42:02.339Z,100469.70
2019-01-25T07:43:03.612Z,100471.45
2019-01-25T07:44:04.512Z,100467.45
2019-01-25T07:45:10.614Z,100465.30
2019-01-25T07:46:11.493Z,100463.43
2019-01-25T07:47:12.359Z,100459.09
2019-01-25T07:48:13.223Z,100465.45
2019-01-25T07:49:14.075Z,100467.15
2019-01-25T07:50:14.982Z,100466.48
2019-01-25T07:51:15.822Z,100460.50
2019-01-25T07:52:16.709Z,100460.37
2019-01-25T07:53:17.575Z,100465.33
2019-01-25T07:54:18.497Z,100455.67
2019-01-25T07:55:19.441Z,100462.27
2019-01-25T07:56:20.314Z,100462.78
2019-01-25T07:57:21.148Z,100458.95
2019-01-25T07:58:22.012Z,100458.07
2019-01-25T07:59:22.957Z,100463.12
2019-01-25T08:00:23.918Z,100462.89
2019-01-25T08:01:24.772Z,100462.10
2019-01-25T08:02:25.624Z,100459.70
2019-01-25T08:03:26.488Z,100458.75
2019-01-25T08:04:27.346Z,100457.77
2019-01-25T08:05:28.236Z,100460.29
2019-01-25T08:06:31.558Z,100461.95
2019-01-25T08:07:34.336Z,100453.73
2019-01-25T08:08:35.186Z,100464.41
2019-01-25T08:09:36.064Z,100454.89
2019-01-25T08:10:36.982Z,100460.81
2019-01-25T08:11:41.130Z,100452.38
2019-01-25T08:12:42.171Z,100459.42
2019-01-25T08:13:43.364Z,100452.09
2019-01-25T08:14:44.229Z,100453.44
2019-01-25T08:15:45.120Z,100448.91
2019-01-25T08:16:46.019Z,100446.92
2019-01-25T08:17:46.924Z,100449.41
2019-01-25T08:18:47.833Z,100523.64
2019-01-25T08:19:48.777Z,100443.41
2019-01-25T08:20:49.700Z,100448.06
2019-01-25T08:21:50.565Z,100449.32
2019-01-25T08:22:51.438Z,100448.59
2019-01-25T08:23:52.270Z,100452.45
2019-01-25T08:24:53.143Z,100449.43
2019-01-25T08:25:54.279Z,100449.08
2019-01-25T08:26:55.296Z,100450.73
2019-01-25T08:27:56.188Z,100450.58
2019-01-25T08:28:57.072Z,100450.58
2019-01-25T08:29:57.924Z,100448.55
2019-01-25T08:30:58.821Z,100457.61
2019-01-25T08:31:59.686Z,100455.89
2019-01-25T08:33:00.553Z,100453.35
2019-01-25T08:34:01.775Z,100454.25
2019-01-25T08:35:06.390Z,100455.03
2019-01-25T08:36:07.299Z,100459.78
2019-01-25T08:37:08.130Z,100455.92
2019-01-25T08:38:08.983Z,100457.27
2019-01-25T08:39:09.841Z,100454.76
2019-01-25T08:40:13.120Z,100457.95
2019-01-25T08:41:14.025Z,100456.23
2019-01-25T08:42:15.669Z,100457.27
2019-01-25T08:43:16.840Z,100454.73
2019-01-25T08:44:17.703Z,100455.09
2019-01-25T08:45:18.616Z,100454.78
2019-01-25T08:46:19.561Z,100460.09
2019-01-25T08:47:20.430Z,100456.79
2019-01-25T08:48:21.276Z,100457.27
2019-01-25T08:49:22.145Z,100459.44
2019-01-25T08:50:25.604Z,100464.13
2019-01-25T08:51:26.485Z,100470.66
2019-01-25T08:52:27.436Z,100464.27
2019-01-25T08:53:28.321Z,100464.77
2019-01-25T08:54:29.262Z,100465.41
2019-01-25T08:55:30.229Z,100461.38
2019-01-25T08:56:31.297Z,100469.42
2019-01-25T08:57:32.230Z,100461.97
2019-01-25T08:58:33.048Z,100462.80
2019-01-25T08:59:33.971Z,100465.47
2019-01-25T09:00:34.867Z,100465.11
2019-01-25T09:01:35.759Z,100460.09
2019-01-25T09:02:36.627Z,100460.93
2019-01-25T09:03:37.473Z,100462.62
2019-01-25T09:04:38.440Z,100465.45
2019-01-25T09:05:39.405Z,100462.19
2019-01-25T09:06:40.294Z,100464.95
2019-01-25T09:07:41.159Z,100460.77
2019-01-25T09:08:42.015Z,100466.80
2019-01-25T09:09:42.867Z,100467.80
2019-01-25T09:10:43.732Z,100466.11
2019-01-25T09:11:44.629Z,100465.47
2019-01-25T09:12:45.479Z,100465.09
2019-01-25T09:13:46.457Z,100465.92
2019-01-25T09:14:47.315Z,100470.06
2019-01-25T09:15:50.369Z,100465.96
2019-01-25T09:16:51.270Z,100465.94
2019-01-25T09:17:52.142Z,100466.61
2019-01-25T09:18:52.995Z,100458.58
2019-01-25T09:19:53.850Z,100464.52
2019-01-25T09:20:54.707Z,100454.57
2019-01-25T09:21:55.598Z,100451.94
2019-01-25T09:22:56.583Z,100460.44
2019-01-25T09:23:57.454Z,100462.77
2019-01-25T09:24:58.307Z,100456.80
2019-01-25T09:26:01.702Z,100455.27
2019-01-25T09:27:02.701Z,100460.09
2019-01-25T09:28:03.567Z,100460.58
2019-01-25T09:29:04.419Z,100462.59
2019-01-25T09:30:23.081Z,100467.62
2019-01-25T09:31:23.944Z,100461.13
2019-01-25T09:32:24.811Z,100463.47
2019-01-25T09:33:25.669Z,100459.77
2019-01-25T09:34:26.525Z,100457.96
2019-01-25T09:35:28.293Z,100459.42
2019-01-25T09:36:29.147Z,100465.73
2019-01-25T09:37:30.039Z,100462.45
2019-01-25T09:38:31.195Z,100465.62
2019-01-25T09:39:32.066Z,100461.45
2019-01-25T09:40:32.924Z,100457.59
2019-01-25T09:41:33.783Z,100462.79
2019-01-25T09:42:34.797Z,100457.75
2019-01-25T09:43:35.663Z,100466.00
2019-01-25T09:44:36.514Z,100455.43
2019-01-25T09:45:37.490Z,100461.78
2019-01-25T09:46:38.345Z,100458.10
2019-01-25T09:47:39.233Z,100464.47
2019-01-25T09:48:40.109Z,100455.05
2019-01-25T09:49:40.986Z,100459.88
2019-01-25T09:50:41.839Z,100453.26
2019-01-25T09:51:42.900Z,100452.23
2019-01-25T09:52:43.799Z,100456.92
2019-01-25T09:53:44.655Z,100451.09
2019-01-25T09:54:45.515Z,100452.11
2019-01-25T09:55:46.358Z,100447.40
2019-01-25T09:56:47.215Z,100452.61
2019-01-25T09:57:48.333Z,100440.98
2019-01-25T09:58:49.205Z,100447.13
2019-01-25T09:59:50.061Z,100446.97
2019-01-25T10:00:57.435Z,100443.64
2019-01-25T10:01:58.291Z,100436.30
2019-01-25T10:02:59.195Z,100439.69
2019-01-25T10:04:00.059Z,100438.31
2019-01-25T10:05:01.053Z,100433.14
2019-01-25T10:06:01.908Z,100439.06
2019-01-25T10:07:02.793Z,100430.13
2019-01-25T10:08:04.085Z,100431.31
2019-01-25T10:09:06.041Z,100424.27
2019-01-25T10:10:08.098Z,100428.65
2019-01-25T10:11:08.954Z,100425.01
2019-01-25T10:12:09.818Z,100422.88
2019-01-25T10:13:10.706Z,100426.70
2019-01-25T10:14:11.566Z,100425.66
2019-01-25T10:15:15.831Z,100423.97
2019-01-25T10:16:16.691Z,100416.51
2019-01-25T10:17:17.613Z,100418.67
2019-01-25T10:18:18.497Z,100417.85
2019-01-25T10:19:19.359Z,100411.33
2019-01-25T10:20:20.229Z,100412.30
2019-01-25T10:21:21.081Z,100418.34
2019-01-25T10:22:21.933Z,100411.75
2019-01-25T10:23:22.815Z,100411.51
2019-01-25T10:24:26.534Z,100405.33
2019-01-25T10:25:36.404Z,100415.66
2019-01-25T10:26:37.265Z,100407.64
2019-01-25T10:27:38.134Z,100402.80
2019-01-25T10:28:39.380Z,100402.31
2019-01-25T10:29:40.496Z,100406.33
2019-01-25T10:30:41.354Z,100411.14
2019-01-25T10:31:42.220Z,100406.98
2019-01-25T10:32:43.115Z,100400.30
2019-01-25T10:33:44.007Z,100401.97
2019-01-25T10:34:44.870Z,100408.12
2019-01-25T10:35:45.734Z,100405.30
2019-01-25T10:36:46.596Z,100403.08
2019-01-25T10:37:47.548Z,100401.79
2019-01-25T10:38:48.696Z,100396.80
2019-01-25T10:39:49.572Z,100404.27
2019-01-25T10:40:50.423Z,100396.63
2019-01-25T10:41:51.287Z,100400.80
2019-01-25T10:42:53.811Z,100401.93
2019-01-25T10:43:54.884Z,100394.28
2019-01-25T10:44:55.740Z,100393.11
2019-01-25T10:45:56.601Z,100401.65
2019-01-25T10:46:57.463Z,100394.45
2019-01-25T10:47:58.345Z,100392.58
2019-01-25T10:48:59.230Z,100403.61
2019-01-25T10:50:00.227Z,100393.50
2019-01-25T10:51:01.317Z,100393.87
2019-01-25T10:52:02.169Z,100390.80
2019-01-25T10:53:04.035Z,100393.97
2019-01-25T10:54:04.918Z,100393.55
2019-01-25T10:55:08.579Z,100388.08
2019-01-25T10:56:09.445Z,100390.30
2019-01-25T10:57:10.312Z,100392.62
2019-01-25T10:58:11.174Z,100388.41
2019-01-25T10:59:12.047Z,100389.62
2019-01-25T11:00:17.926Z,100384.78
2019-01-25T11:01:18.853Z,100385.77
2019-01-25T11:02:19.747Z,100390.44
2019-01-25T11:03:20.576Z,100384.89
2019-01-25T11:04:21.474Z,100377.50
2019-01-25T11:05:28.586Z,100384.48
2019-01-25T11:06:29.480Z,100380.97
2019-01-25T11:07:30.341Z,100385.26
2019-01-25T11:08:32.866Z,100379.83
2019-01-25T11:09:38.012Z,100374.58
2019-01-25T11:10:36.746Z,100376.23
2019-01-25T11:11:37.619Z,100372.06
2019-01-25T11:12:38.483Z,100372.41
2019-01-25T11:13:39.331Z,100371.73
2019-01-25T11:14:40.193Z,100382.16
2019-01-25T11:15:41.089Z,100380.80
2019-01-25T11:16:41.955Z,100378.06
2019-01-25T11:17:42.812Z,100376.53
2019-01-25T11:18:43.660Z,100373.30
2019-01-25T11:19:44.528Z,100372.95
2019-01-25T11:20:45.439Z,100374.27
2019-01-25T11:21:46.307Z,100376.27
2019-01-25T11:22:47.251Z,100374.20
2019-01-25T11:23:48.105Z,100368.89
2019-01-25T11:24:48.968Z,100369.91
2019-01-25T11:25:49.863Z,100369.91
2019-01-25T11:26:50.733Z,100374.91
2019-01-25T11:27:51.651Z,100371.75
2019-01-25T11:28:52.511Z,100378.22
2019-01-25T11:29:53.363Z,100379.05
2019-01-25T11:31:05.510Z,100371.73
2019-01-25T11:32:06.368Z,100377.87
2019-01-25T11:33:07.267Z,100373.06
2019-01-25T11:34:08.125Z,100373.27
2019-01-25T11:35:09.001Z,100381.38
2019-01-25T11:36:09.851Z,100375.42
2019-01-25T11:37:10.710Z,100372.43
2019-01-25T11:38:11.621Z,100372.93
2019-01-25T11:39:12.471Z,100374.89
2019-01-25T11:40:22.917Z,100370.25
2019-01-25T11:41:23.783Z,100371.07